sensor_id;sensor_type;location;lat;lon;timestamp;P1;durP1;ratioP1;P2;durP2;ratioP2
53650;SDS011;39552;45.776;15.892;2022-10-22T00:01:15;9.38;;;2.92;;
53650;SDS011;39552;45.776;15.892;2022-10-22T00:03:42;9.27;;;2.92;;
53650;SDS011;39552;45.776;15.892;2022-10-22T00:06:08;5.05;;;2.70;;
53650;SDS011;39552;45.776;15.892;2022-10-22T00:08:36;10.25;;;4.45;;
53650;SDS011;39552;45.776;15.892;2022-10-22T00:11:08;9.37;;;2.87;;
53650;SDS011;39552;45.776;15.892;2022-10-22T00:13:36;5.38;;;2.78;;
53650;SDS011;39552;45.776;15.892;2022-10-22T00:16:02;7.72;;;2.75;;
53650;SDS011;39552;45.776;15.892;2022-10-22T00:18:29;4.63;;;2.90;;
53650;SDS011;39552;45.776;15.892;2022-10-22T00:20:56;4.53;;;2.78;;
53650;SDS011;39552;45.776;15.892;2022-10-22T00:23:23;4.80;;;2.95;;
53650;SDS011;39552;45.776;15.892;2022-10-22T00:25:51;7.40;;;3.05;;
53650;SDS011;39552;45.776;15.892;2022-10-22T00:28:19;6.20;;;2.95;;
53650;SDS011;39552;45.776;15.892;2022-10-22T00:30:46;4.40;;;3.22;;
53650;SDS011;39552;45.776;15.892;2022-10-22T00:33:12;8.98;;;3.00;;
53650;SDS011;39552;45.776;15.892;2022-10-22T00:35:39;5.53;;;3.15;;
53650;SDS011;39552;45.776;15.892;2022-10-22T00:38:06;5.88;;;3.42;;
53650;SDS011;39552;45.776;15.892;2022-10-22T00:40:32;5.07;;;3.00;;
53650;SDS011;39552;45.776;15.892;2022-10-22T00:43:00;5.93;;;3.30;;
53650;SDS011;39552;45.776;15.892;2022-10-22T00:45:27;12.07;;;3.45;;
53650;SDS011;39552;45.776;15.892;2022-10-22T00:47:55;9.82;;;3.20;;
53650;SDS011;39552;45.776;15.892;2022-10-22T00:50:27;5.32;;;2.90;;
53650;SDS011;39552;45.776;15.892;2022-10-22T00:52:57;6.53;;;3.50;;
53650;SDS011;39552;45.776;15.892;2022-10-22T00:55:24;6.72;;;3.28;;
53650;SDS011;39552;45.776;15.892;2022-10-22T00:57:53;4.97;;;2.73;;
53650;SDS011;39552;45.776;15.892;2022-10-22T01:00:23;6.83;;;2.57;;
53650;SDS011;39552;45.776;15.892;2022-10-22T01:02:50;4.63;;;2.72;;
53650;SDS011;39552;45.776;15.892;2022-10-22T01:05:19;4.25;;;2.65;;
53650;SDS011;39552;45.776;15.892;2022-10-22T01:07:46;9.90;;;3.30;;
53650;SDS011;39552;45.776;15.892;2022-10-22T01:10:17;6.77;;;2.90;;
53650;SDS011;39552;45.776;15.892;2022-10-22T01:12:53;7.07;;;2.60;;
53650;SDS011;39552;45.776;15.892;2022-10-22T01:15:30;3.88;;;2.75;;
53650;SDS011;39552;45.776;15.892;2022-10-22T01:18:04;12.23;;;2.72;;
53650;SDS011;39552;45.776;15.892;2022-10-22T01:20:45;7.18;;;2.95;;
53650;SDS011;39552;45.776;15.892;2022-10-22T01:23:28;6.57;;;3.05;;
53650;SDS011;39552;45.776;15.892;2022-10-22T01:26:09;6.20;;;2.70;;
53650;SDS011;39552;45.776;15.892;2022-10-22T01:28:49;5.88;;;2.60;;
53650;SDS011;39552;45.776;15.892;2022-10-22T01:31:24;3.28;;;2.53;;
53650;SDS011;39552;45.776;15.892;2022-10-22T01:33:54;4.95;;;2.50;;
53650;SDS011;39552;45.776;15.892;2022-10-22T01:36:23;3.42;;;2.50;;
53650;SDS011;39552;45.776;15.892;2022-10-22T01:38:51;6.40;;;3.05;;
53650;SDS011;39552;45.776;15.892;2022-10-22T01:41:19;4.10;;;2.80;;
53650;SDS011;39552;45.776;15.892;2022-10-22T01:43:45;3.20;;;2.85;;
53650;SDS011;39552;45.776;15.892;2022-10-22T01:46:14;5.15;;;3.00;;
53650;SDS011;39552;45.776;15.892;2022-10-22T01:48:46;5.30;;;2.83;;
53650;SDS011;39552;45.776;15.892;2022-10-22T01:51:23;5.90;;;2.45;;
53650;SDS011;39552;45.776;15.892;2022-10-22T01:54:03;8.10;;;2.78;;
53650;SDS011;39552;45.776;15.892;2022-10-22T01:56:39;4.18;;;2.70;;
53650;SDS011;39552;45.776;15.892;2022-10-22T01:59:20;3.92;;;2.88;;
53650;SDS011;39552;45.776;15.892;2022-10-22T02:02:01;6.43;;;2.80;;
53650;SDS011;39552;45.776;15.892;2022-10-22T02:04:38;7.80;;;2.80;;
53650;SDS011;39552;45.776;15.892;2022-10-22T02:07:10;2.90;;;2.65;;
53650;SDS011;39552;45.776;15.892;2022-10-22T02:09:40;4.07;;;2.55;;
53650;SDS011;39552;45.776;15.892;2022-10-22T02:12:08;5.27;;;2.63;;
53650;SDS011;39552;45.776;15.892;2022-10-22T02:14:38;4.78;;;2.65;;
53650;SDS011;39552;45.776;15.892;2022-10-22T02:17:11;3.13;;;2.60;;
53650;SDS011;39552;45.776;15.892;2022-10-22T02:19:43;5.07;;;2.85;;
53650;SDS011;39552;45.776;15.892;2022-10-22T02:22:15;5.55;;;2.92;;
53650;SDS011;39552;45.776;15.892;2022-10-22T02:24:42;4.15;;;2.90;;
53650;SDS011;39552;45.776;15.892;2022-10-22T02:27:11;4.28;;;2.80;;
53650;SDS011;39552;45.776;15.892;2022-10-22T02:29:54;4.15;;;2.80;;
53650;SDS011;39552;45.776;15.892;2022-10-22T02:32:27;3.30;;;3.00;;
53650;SDS011;39552;45.776;15.892;2022-10-22T02:34:58;6.85;;;3.45;;
53650;SDS011;39552;45.776;15.892;2022-10-22T02:37:25;6.78;;;3.00;;
53650;SDS011;39552;45.776;15.892;2022-10-22T02:39:53;3.83;;;2.60;;
53650;SDS011;39552;45.776;15.892;2022-10-22T02:42:20;7.53;;;2.90;;
53650;SDS011;39552;45.776;15.892;2022-10-22T02:44:48;7.60;;;2.70;;
53650;SDS011;39552;45.776;15.892;2022-10-22T02:47:15;5.15;;;2.92;;
53650;SDS011;39552;45.776;15.892;2022-10-22T02:49:43;5.05;;;2.80;;
53650;SDS011;39552;45.776;15.892;2022-10-22T02:52:10;3.75;;;2.92;;
53650;SDS011;39552;45.776;15.892;2022-10-22T02:54:36;3.00;;;2.70;;
53650;SDS011;39552;45.776;15.892;2022-10-22T02:57:03;10.65;;;3.13;;
53650;SDS011;39552;45.776;15.892;2022-10-22T02:59:30;4.07;;;2.80;;
53650;SDS011;39552;45.776;15.892;2022-10-22T03:01:56;4.67;;;2.90;;
53650;SDS011;39552;45.776;15.892;2022-10-22T03:04:23;3.30;;;2.90;;
53650;SDS011;39552;45.776;15.892;2022-10-22T03:06:51;5.33;;;3.00;;
53650;SDS011;39552;45.776;15.892;2022-10-22T03:09:18;6.20;;;2.80;;
53650;SDS011;39552;45.776;15.892;2022-10-22T03:11:50;5.30;;;2.90;;
53650;SDS011;39552;45.776;15.892;2022-10-22T03:14:17;9.20;;;3.20;;
53650;SDS011;39552;45.776;15.892;2022-10-22T03:16:43;3.60;;;2.80;;
53650;SDS011;39552;45.776;15.892;2022-10-22T03:19:10;5.07;;;2.63;;
53650;SDS011;39552;45.776;15.892;2022-10-22T03:21:37;4.88;;;3.00;;
53650;SDS011;39552;45.776;15.892;2022-10-22T03:24:09;3.97;;;3.08;;
53650;SDS011;39552;45.776;15.892;2022-10-22T03:26:39;5.78;;;2.95;;
53650;SDS011;39552;45.776;15.892;2022-10-22T03:29:07;4.15;;;3.13;;
53650;SDS011;39552;45.776;15.892;2022-10-22T03:31:35;5.50;;;3.25;;
53650;SDS011;39552;45.776;15.892;2022-10-22T03:34:02;4.40;;;2.72;;
53650;SDS011;39552;45.776;15.892;2022-10-22T03:36:28;5.35;;;2.90;;
53650;SDS011;39552;45.776;15.892;2022-10-22T03:38:56;4.10;;;2.72;;
53650;SDS011;39552;45.776;15.892;2022-10-22T03:41:25;4.53;;;3.25;;
53650;SDS011;39552;45.776;15.892;2022-10-22T03:43:52;5.80;;;3.63;;
53650;SDS011;39552;45.776;15.892;2022-10-22T03:46:20;9.15;;;3.53;;
53650;SDS011;39552;45.776;15.892;2022-10-22T03:48:46;5.35;;;3.22;;
53650;SDS011;39552;45.776;15.892;2022-10-22T03:51:13;11.07;;;3.30;;
53650;SDS011;39552;45.776;15.892;2022-10-22T03:53:40;6.55;;;3.10;;
53650;SDS011;39552;45.776;15.892;2022-10-22T03:56:07;4.95;;;3.28;;
53650;SDS011;39552;45.776;15.892;2022-10-22T03:58:35;6.40;;;3.10;;
53650;SDS011;39552;45.776;15.892;2022-10-22T04:01:03;4.47;;;2.90;;
53650;SDS011;39552;45.776;15.892;2022-10-22T04:03:30;6.63;;;3.30;;
53650;SDS011;39552;45.776;15.892;2022-10-22T04:05:59;4.38;;;3.45;;
53650;SDS011;39552;45.776;15.892;2022-10-22T04:08:27;10.27;;;3.17;;
53650;SDS011;39552;45.776;15.892;2022-10-22T04:10:53;5.35;;;3.13;;
53650;SDS011;39552;45.776;15.892;2022-10-22T04:13:20;5.10;;;2.80;;
53650;SDS011;39552;45.776;15.892;2022-10-22T04:15:48;6.45;;;3.20;;
53650;SDS011;39552;45.776;15.892;2022-10-22T04:18:15;5.10;;;3.10;;
53650;SDS011;39552;45.776;15.892;2022-10-22T04:20:41;6.82;;;3.10;;
53650;SDS011;39552;45.776;15.892;2022-10-22T04:23:08;3.97;;;3.00;;
53650;SDS011;39552;45.776;15.892;2022-10-22T04:25:35;3.92;;;3.25;;
53650;SDS011;39552;45.776;15.892;2022-10-22T04:28:01;5.72;;;2.95;;
53650;SDS011;39552;45.776;15.892;2022-10-22T04:30:28;4.80;;;2.85;;
53650;SDS011;39552;45.776;15.892;2022-10-22T04:32:56;4.50;;;3.10;;
53650;SDS011;39552;45.776;15.892;2022-10-22T04:35:22;6.97;;;3.00;;
53650;SDS011;39552;45.776;15.892;2022-10-22T04:37:50;3.72;;;3.22;;
53650;SDS011;39552;45.776;15.892;2022-10-22T04:40:17;5.35;;;3.05;;
53650;SDS011;39552;45.776;15.892;2022-10-22T04:42:43;5.00;;;3.15;;
53650;SDS011;39552;45.776;15.892;2022-10-22T04:45:10;5.00;;;3.33;;
53650;SDS011;39552;45.776;15.892;2022-10-22T04:47:37;8.68;;;2.83;;
53650;SDS011;39552;45.776;15.892;2022-10-22T04:50:06;9.88;;;3.05;;
53650;SDS011;39552;45.776;15.892;2022-10-22T04:52:33;6.32;;;3.03;;
53650;SDS011;39552;45.776;15.892;2022-10-22T04:55:00;7.40;;;3.22;;
53650;SDS011;39552;45.776;15.892;2022-10-22T04:57:28;3.20;;;2.90;;
53650;SDS011;39552;45.776;15.892;2022-10-22T04:59:54;5.05;;;2.92;;
53650;SDS011;39552;45.776;15.892;2022-10-22T05:02:21;5.75;;;3.10;;
53650;SDS011;39552;45.776;15.892;2022-10-22T05:04:48;6.53;;;3.45;;
53650;SDS011;39552;45.776;15.892;2022-10-22T05:07:16;11.30;;;2.92;;
53650;SDS011;39552;45.776;15.892;2022-10-22T05:09:43;5.65;;;3.28;;
53650;SDS011;39552;45.776;15.892;2022-10-22T05:12:09;6.97;;;3.17;;
53650;SDS011;39552;45.776;15.892;2022-10-22T05:14:36;6.50;;;3.42;;
53650;SDS011;39552;45.776;15.892;2022-10-22T05:17:09;4.97;;;3.28;;
53650;SDS011;39552;45.776;15.892;2022-10-22T05:19:36;9.52;;;3.17;;
53650;SDS011;39552;45.776;15.892;2022-10-22T05:22:03;5.50;;;3.15;;
53650;SDS011;39552;45.776;15.892;2022-10-22T05:24:32;4.60;;;3.10;;
53650;SDS011;39552;45.776;15.892;2022-10-22T05:26:59;5.25;;;3.30;;
53650;SDS011;39552;45.776;15.892;2022-10-22T05:29:26;6.68;;;3.42;;
53650;SDS011;39552;45.776;15.892;2022-10-22T05:31:53;5.10;;;3.40;;
53650;SDS011;39552;45.776;15.892;2022-10-22T05:34:20;4.18;;;3.78;;
53650;SDS011;39552;45.776;15.892;2022-10-22T05:36:47;6.15;;;3.67;;
53650;SDS011;39552;45.776;15.892;2022-10-22T05:39:13;4.75;;;3.30;;
53650;SDS011;39552;45.776;15.892;2022-10-22T05:41:41;3.88;;;3.45;;
53650;SDS011;39552;45.776;15.892;2022-10-22T05:44:09;4.47;;;3.13;;
53650;SDS011;39552;45.776;15.892;2022-10-22T05:46:37;9.82;;;3.30;;
53650;SDS011;39552;45.776;15.892;2022-10-22T05:49:04;12.32;;;3.25;;
53650;SDS011;39552;45.776;15.892;2022-10-22T05:51:33;8.25;;;3.70;;
53650;SDS011;39552;45.776;15.892;2022-10-22T05:54:02;5.47;;;3.45;;
53650;SDS011;39552;45.776;15.892;2022-10-22T05:56:33;7.82;;;3.67;;
53650;SDS011;39552;45.776;15.892;2022-10-22T05:59:02;4.88;;;3.50;;
53650;SDS011;39552;45.776;15.892;2022-10-22T06:01:34;8.02;;;4.00;;
53650;SDS011;39552;45.776;15.892;2022-10-22T06:04:01;8.52;;;4.50;;
53650;SDS011;39552;45.776;15.892;2022-10-22T06:06:33;10.48;;;3.83;;
53650;SDS011;39552;45.776;15.892;2022-10-22T06:09:02;6.55;;;4.28;;
53650;SDS011;39552;45.776;15.892;2022-10-22T06:11:31;19.98;;;5.05;;
53650;SDS011;39552;45.776;15.892;2022-10-22T06:14:02;21.38;;;5.18;;
53650;SDS011;39552;45.776;15.892;2022-10-22T06:16:29;23.50;;;5.22;;
53650;SDS011;39552;45.776;15.892;2022-10-22T06:18:57;16.58;;;5.00;;
53650;SDS011;39552;45.776;15.892;2022-10-22T06:21:24;23.73;;;5.18;;
53650;SDS011;39552;45.776;15.892;2022-10-22T06:23:51;9.73;;;4.50;;
53650;SDS011;39552;45.776;15.892;2022-10-22T06:26:24;16.40;;;4.50;;
53650;SDS011;39552;45.776;15.892;2022-10-22T06:28:53;8.43;;;4.55;;
53650;SDS011;39552;45.776;15.892;2022-10-22T06:31:21;11.23;;;4.25;;
53650;SDS011;39552;45.776;15.892;2022-10-22T06:33:48;7.43;;;5.00;;
53650;SDS011;39552;45.776;15.892;2022-10-22T06:36:16;13.98;;;4.38;;
53650;SDS011;39552;45.776;15.892;2022-10-22T06:41:12;23.02;;;4.88;;
53650;SDS011;39552;45.776;15.892;2022-10-22T06:43:41;13.60;;;5.20;;
53650;SDS011;39552;45.776;15.892;2022-10-22T06:46:12;22.92;;;5.35;;
53650;SDS011;39552;45.776;15.892;2022-10-22T06:48:49;24.58;;;5.85;;
53650;SDS011;39552;45.776;15.892;2022-10-22T06:51:17;21.48;;;5.20;;
53650;SDS011;39552;45.776;15.892;2022-10-22T06:53:44;20.55;;;5.47;;
53650;SDS011;39552;45.776;15.892;2022-10-22T06:56:12;15.52;;;5.90;;
53650;SDS011;39552;45.776;15.892;2022-10-22T07:01:12;13.38;;;5.38;;
53650;SDS011;39552;45.776;15.892;2022-10-22T07:03:41;15.15;;;5.65;;
53650;SDS011;39552;45.776;15.892;2022-10-22T07:06:10;17.67;;;4.10;;
53650;SDS011;39552;45.776;15.892;2022-10-22T07:08:40;10.13;;;3.95;;
53650;SDS011;39552;45.776;15.892;2022-10-22T07:11:08;8.57;;;3.40;;
53650;SDS011;39552;45.776;15.892;2022-10-22T07:13:36;5.05;;;3.25;;
53650;SDS011;39552;45.776;15.892;2022-10-22T07:16:04;11.60;;;3.70;;
53650;SDS011;39552;45.776;15.892;2022-10-22T07:18:32;5.72;;;3.35;;
53650;SDS011;39552;45.776;15.892;2022-10-22T07:21:00;5.60;;;3.22;;
53650;SDS011;39552;45.776;15.892;2022-10-22T07:23:32;10.75;;;3.70;;
53650;SDS011;39552;45.776;15.892;2022-10-22T07:25:59;4.95;;;4.00;;
53650;SDS011;39552;45.776;15.892;2022-10-22T07:28:25;11.20;;;3.97;;
53650;SDS011;39552;45.776;15.892;2022-10-22T07:30:52;6.45;;;3.80;;
53650;SDS011;39552;45.776;15.892;2022-10-22T07:33:19;6.88;;;3.85;;
53650;SDS011;39552;45.776;15.892;2022-10-22T07:35:46;10.77;;;4.20;;
53650;SDS011;39552;45.776;15.892;2022-10-22T07:38:13;11.80;;;4.10;;
53650;SDS011;39552;45.776;15.892;2022-10-22T07:40:41;9.02;;;4.07;;
53650;SDS011;39552;45.776;15.892;2022-10-22T07:43:07;8.43;;;3.95;;
53650;SDS011;39552;45.776;15.892;2022-10-22T07:45:34;14.25;;;4.30;;
53650;SDS011;39552;45.776;15.892;2022-10-22T07:48:01;8.95;;;4.25;;
53650;SDS011;39552;45.776;15.892;2022-10-22T07:50:28;6.80;;;4.13;;
53650;SDS011;39552;45.776;15.892;2022-10-22T07:52:54;8.15;;;3.97;;
53650;SDS011;39552;45.776;15.892;2022-10-22T07:55:23;9.55;;;4.35;;
53650;SDS011;39552;45.776;15.892;2022-10-22T07:57:51;11.23;;;4.40;;
53650;SDS011;39552;45.776;15.892;2022-10-22T08:00:18;12.45;;;4.78;;
53650;SDS011;39552;45.776;15.892;2022-10-22T08:02:50;12.80;;;5.22;;
53650;SDS011;39552;45.776;15.892;2022-10-22T08:05:17;9.48;;;4.43;;
53650;SDS011;39552;45.776;15.892;2022-10-22T08:07:44;5.63;;;4.00;;
53650;SDS011;39552;45.776;15.892;2022-10-22T08:10:11;13.82;;;4.72;;
53650;SDS011;39552;45.776;15.892;2022-10-22T08:12:38;8.02;;;4.40;;
53650;SDS011;39552;45.776;15.892;2022-10-22T08:15:08;16.48;;;3.75;;
53650;SDS011;39552;45.776;15.892;2022-10-22T08:17:35;5.75;;;3.80;;
53650;SDS011;39552;45.776;15.892;2022-10-22T08:20:02;6.65;;;3.95;;
53650;SDS011;39552;45.776;15.892;2022-10-22T08:22:29;10.15;;;3.95;;
53650;SDS011;39552;45.776;15.892;2022-10-22T08:24:56;8.60;;;4.05;;
53650;SDS011;39552;45.776;15.892;2022-10-22T08:27:22;8.30;;;4.30;;
53650;SDS011;39552;45.776;15.892;2022-10-22T08:29:49;9.80;;;4.40;;
53650;SDS011;39552;45.776;15.892;2022-10-22T08:32:17;6.88;;;4.00;;
53650;SDS011;39552;45.776;15.892;2022-10-22T08:34:44;10.55;;;5.03;;
53650;SDS011;39552;45.776;15.892;2022-10-22T08:37:10;15.25;;;5.25;;
53650;SDS011;39552;45.776;15.892;2022-10-22T08:39:37;14.50;;;5.72;;
53650;SDS011;39552;45.776;15.892;2022-10-22T08:42:05;18.02;;;9.57;;
53650;SDS011;39552;45.776;15.892;2022-10-22T08:44:47;22.05;;;9.18;;
53650;SDS011;39552;45.776;15.892;2022-10-22T08:47:34;17.48;;;9.32;;
53650;SDS011;39552;45.776;15.892;2022-10-22T08:50:13;24.55;;;9.35;;
53650;SDS011;39552;45.776;15.892;2022-10-22T08:52:45;21.55;;;7.20;;
53650;SDS011;39552;45.776;15.892;2022-10-22T08:55:19;12.98;;;6.45;;
53650;SDS011;39552;45.776;15.892;2022-10-22T08:57:50;14.85;;;6.88;;
53650;SDS011;39552;45.776;15.892;2022-10-22T09:00:27;12.23;;;5.15;;
53650;SDS011;39552;45.776;15.892;2022-10-22T09:03:06;10.55;;;4.40;;
53650;SDS011;39552;45.776;15.892;2022-10-22T09:05:55;6.95;;;4.15;;
53650;SDS011;39552;45.776;15.892;2022-10-22T09:08:28;9.32;;;4.10;;
53650;SDS011;39552;45.776;15.892;2022-10-22T09:10:56;5.90;;;3.90;;
53650;SDS011;39552;45.776;15.892;2022-10-22T09:13:29;6.93;;;3.60;;
53650;SDS011;39552;45.776;15.892;2022-10-22T09:15:56;8.50;;;4.22;;
53650;SDS011;39552;45.776;15.892;2022-10-22T09:18:32;10.02;;;4.65;;
53650;SDS011;39552;45.776;15.892;2022-10-22T09:21:05;11.73;;;5.10;;
53650;SDS011;39552;45.776;15.892;2022-10-22T09:23:47;14.60;;;4.43;;
53650;SDS011;39552;45.776;15.892;2022-10-22T09:26:19;12.85;;;4.45;;
53650;SDS011;39552;45.776;15.892;2022-10-22T09:28:48;12.55;;;4.60;;
53650;SDS011;39552;45.776;15.892;2022-10-22T09:31:16;11.00;;;4.90;;
53650;SDS011;39552;45.776;15.892;2022-10-22T09:33:50;7.35;;;4.20;;
53650;SDS011;39552;45.776;15.892;2022-10-22T09:36:21;6.53;;;4.55;;
53650;SDS011;39552;45.776;15.892;2022-10-22T09:38:51;11.13;;;4.47;;
53650;SDS011;39552;45.776;15.892;2022-10-22T09:41:19;10.45;;;4.95;;
53650;SDS011;39552;45.776;15.892;2022-10-22T09:43:48;9.18;;;4.30;;
53650;SDS011;39552;45.776;15.892;2022-10-22T09:46:19;8.68;;;4.55;;
53650;SDS011;39552;45.776;15.892;2022-10-22T09:48:58;9.00;;;5.03;;
53650;SDS011;39552;45.776;15.892;2022-10-22T09:51:35;8.68;;;4.70;;
53650;SDS011;39552;45.776;15.892;2022-10-22T09:54:22;8.98;;;4.40;;
53650;SDS011;39552;45.776;15.892;2022-10-22T09:57:04;12.57;;;4.43;;
53650;SDS011;39552;45.776;15.892;2022-10-22T09:59:35;10.70;;;4.35;;
53650;SDS011;39552;45.776;15.892;2022-10-22T10:02:17;8.30;;;4.72;;
53650;SDS011;39552;45.776;15.892;2022-10-22T10:05:16;12.13;;;4.93;;
53650;SDS011;39552;45.776;15.892;2022-10-22T10:07:57;7.75;;;4.72;;
53650;SDS011;39552;45.776;15.892;2022-10-22T10:10:33;8.95;;;4.53;;
53650;SDS011;39552;45.776;15.892;2022-10-22T10:13:15;9.87;;;5.13;;
53650;SDS011;39552;45.776;15.892;2022-10-22T10:15:54;10.73;;;4.93;;
53650;SDS011;39552;45.776;15.892;2022-10-22T10:18:28;11.52;;;5.22;;
53650;SDS011;39552;45.776;15.892;2022-10-22T10:21:16;14.57;;;4.93;;
53650;SDS011;39552;45.776;15.892;2022-10-22T10:23:57;7.63;;;4.80;;
53650;SDS011;39552;45.776;15.892;2022-10-22T10:26:30;10.20;;;5.47;;
53650;SDS011;39552;45.776;15.892;2022-10-22T10:29:12;11.70;;;6.35;;
53650;SDS011;39552;45.776;15.892;2022-10-22T10:31:54;13.82;;;7.22;;
53650;SDS011;39552;45.776;15.892;2022-10-22T10:34:37;22.60;;;7.20;;
53650;SDS011;39552;45.776;15.892;2022-10-22T10:37:13;17.95;;;8.05;;
53650;SDS011;39552;45.776;15.892;2022-10-22T10:40:10;17.00;;;6.72;;
53650;SDS011;39552;45.776;15.892;2022-10-22T10:42:54;13.00;;;7.30;;
53650;SDS011;39552;45.776;15.892;2022-10-22T10:45:24;12.93;;;7.50;;
53650;SDS011;39552;45.776;15.892;2022-10-22T10:51:07;14.02;;;6.68;;
53650;SDS011;39552;45.776;15.892;2022-10-22T10:53:53;16.60;;;7.43;;
53650;SDS011;39552;45.776;15.892;2022-10-22T10:56:34;16.27;;;8.02;;
53650;SDS011;39552;45.776;15.892;2022-10-22T10:59:11;12.88;;;7.80;;
53650;SDS011;39552;45.776;15.892;2022-10-22T11:01:44;16.02;;;7.45;;
53650;SDS011;39552;45.776;15.892;2022-10-22T11:04:32;12.88;;;7.43;;
53650;SDS011;39552;45.776;15.892;2022-10-22T11:07:11;12.25;;;7.03;;
53650;SDS011;39552;45.776;15.892;2022-10-22T11:10:01;16.15;;;6.80;;
53650;SDS011;39552;45.776;15.892;2022-10-22T11:12:34;15.70;;;7.25;;
53650;SDS011;39552;45.776;15.892;2022-10-22T11:15:11;12.45;;;6.70;;
53650;SDS011;39552;45.776;15.892;2022-10-22T11:17:48;15.32;;;7.40;;
53650;SDS011;39552;45.776;15.892;2022-10-22T11:20:20;19.48;;;6.38;;
53650;SDS011;39552;45.776;15.892;2022-10-22T11:22:50;7.78;;;6.10;;
53650;SDS011;39552;45.776;15.892;2022-10-22T11:25:43;16.40;;;6.75;;
53650;SDS011;39552;45.776;15.892;2022-10-22T11:28:13;18.20;;;7.57;;
53650;SDS011;39552;45.776;15.892;2022-10-22T11:30:46;12.40;;;6.47;;
53650;SDS011;39552;45.776;15.892;2022-10-22T11:33:21;11.48;;;6.22;;
53650;SDS011;39552;45.776;15.892;2022-10-22T11:35:51;9.95;;;6.63;;
53650;SDS011;39552;45.776;15.892;2022-10-22T11:38:19;10.95;;;6.95;;
53650;SDS011;39552;45.776;15.892;2022-10-22T11:40:51;13.02;;;6.55;;
53650;SDS011;39552;45.776;15.892;2022-10-22T11:43:26;12.65;;;6.80;;
53650;SDS011;39552;45.776;15.892;2022-10-22T11:46:00;11.20;;;6.25;;
53650;SDS011;39552;45.776;15.892;2022-10-22T11:48:34;16.20;;;6.13;;
53650;SDS011;39552;45.776;15.892;2022-10-22T11:51:03;13.13;;;6.07;;
53650;SDS011;39552;45.776;15.892;2022-10-22T11:56:50;15.68;;;5.60;;
53650;SDS011;39552;45.776;15.892;2022-10-22T11:59:30;16.13;;;6.38;;
53650;SDS011;39552;45.776;15.892;2022-10-22T12:02:19;15.07;;;6.25;;
53650;SDS011;39552;45.776;15.892;2022-10-22T12:04:49;11.82;;;6.28;;
53650;SDS011;39552;45.776;15.892;2022-10-22T12:10:03;10.38;;;6.20;;
53650;SDS011;39552;45.776;15.892;2022-10-22T12:12:33;11.77;;;6.10;;
53650;SDS011;39552;45.776;15.892;2022-10-22T12:15:19;18.42;;;6.80;;
53650;SDS011;39552;45.776;15.892;2022-10-22T12:17:48;21.15;;;6.80;;
53650;SDS011;39552;45.776;15.892;2022-10-22T12:20:15;12.48;;;6.10;;
53650;SDS011;39552;45.776;15.892;2022-10-22T12:22:44;10.90;;;6.90;;
53650;SDS011;39552;45.776;15.892;2022-10-22T12:27:42;12.48;;;6.90;;
53650;SDS011;39552;45.776;15.892;2022-10-22T12:30:15;18.30;;;6.70;;
53650;SDS011;39552;45.776;15.892;2022-10-22T12:32:44;15.05;;;6.55;;
53650;SDS011;39552;45.776;15.892;2022-10-22T12:35:15;17.50;;;6.88;;
53650;SDS011;39552;45.776;15.892;2022-10-22T12:37:47;13.02;;;6.10;;
53650;SDS011;39552;45.776;15.892;2022-10-22T12:40:15;13.55;;;6.03;;
53650;SDS011;39552;45.776;15.892;2022-10-22T12:42:48;18.15;;;5.93;;
53650;SDS011;39552;45.776;15.892;2022-10-22T12:45:16;19.98;;;7.28;;
53650;SDS011;39552;45.776;15.892;2022-10-22T12:47:46;15.90;;;6.25;;
53650;SDS011;39552;45.776;15.892;2022-10-22T12:50:16;12.32;;;6.00;;
53650;SDS011;39552;45.776;15.892;2022-10-22T12:52:46;10.88;;;5.47;;
53650;SDS011;39552;45.776;15.892;2022-10-22T12:55:14;21.02;;;5.80;;
53650;SDS011;39552;45.776;15.892;2022-10-22T12:57:42;20.00;;;5.78;;
53650;SDS011;39552;45.776;15.892;2022-10-22T13:00:22;12.68;;;5.82;;
53650;SDS011;39552;45.776;15.892;2022-10-22T13:02:50;19.15;;;6.05;;
53650;SDS011;39552;45.776;15.892;2022-10-22T13:05:22;12.30;;;6.03;;
53650;SDS011;39552;45.776;15.892;2022-10-22T13:07:52;15.25;;;5.65;;
53650;SDS011;39552;45.776;15.892;2022-10-22T13:10:23;16.50;;;6.10;;
53650;SDS011;39552;45.776;15.892;2022-10-22T13:12:53;15.05;;;6.05;;
53650;SDS011;39552;45.776;15.892;2022-10-22T13:15:31;16.65;;;5.97;;
53650;SDS011;39552;45.776;15.892;2022-10-22T13:18:03;16.13;;;5.72;;
53650;SDS011;39552;45.776;15.892;2022-10-22T13:20:51;19.13;;;6.05;;
53650;SDS011;39552;45.776;15.892;2022-10-22T13:23:21;14.67;;;6.13;;
53650;SDS011;39552;45.776;15.892;2022-10-22T13:25:59;18.23;;;6.13;;
53650;SDS011;39552;45.776;15.892;2022-10-22T13:28:29;16.33;;;5.63;;
53650;SDS011;39552;45.776;15.892;2022-10-22T13:30:57;11.20;;;5.75;;
53650;SDS011;39552;45.776;15.892;2022-10-22T13:33:27;13.90;;;6.18;;
53650;SDS011;39552;45.776;15.892;2022-10-22T13:35:55;15.70;;;6.38;;
53650;SDS011;39552;45.776;15.892;2022-10-22T13:38:24;17.70;;;6.68;;
53650;SDS011;39552;45.776;15.892;2022-10-22T13:40:52;10.95;;;6.00;;
53650;SDS011;39552;45.776;15.892;2022-10-22T13:43:19;26.02;;;7.82;;
53650;SDS011;39552;45.776;15.892;2022-10-22T13:45:47;18.20;;;7.22;;
53650;SDS011;39552;45.776;15.892;2022-10-22T13:48:18;23.17;;;6.65;;
53650;SDS011;39552;45.776;15.892;2022-10-22T13:50:52;25.27;;;6.97;;
53650;SDS011;39552;45.776;15.892;2022-10-22T13:53:21;15.63;;;6.80;;
53650;SDS011;39552;45.776;15.892;2022-10-22T13:55:51;18.52;;;7.57;;
53650;SDS011;39552;45.776;15.892;2022-10-22T13:58:44;21.45;;;6.65;;
53650;SDS011;39552;45.776;15.892;2022-10-22T14:01:18;15.40;;;6.55;;
53650;SDS011;39552;45.776;15.892;2022-10-22T14:03:49;15.95;;;6.38;;
53650;SDS011;39552;45.776;15.892;2022-10-22T14:06:18;23.48;;;6.68;;
53650;SDS011;39552;45.776;15.892;2022-10-22T14:08:49;24.83;;;6.78;;
53650;SDS011;39552;45.776;15.892;2022-10-22T14:11:24;20.65;;;7.07;;
53650;SDS011;39552;45.776;15.892;2022-10-22T14:13:57;19.00;;;6.63;;
53650;SDS011;39552;45.776;15.892;2022-10-22T14:16:27;27.88;;;6.47;;
53650;SDS011;39552;45.776;15.892;2022-10-22T14:18:54;14.32;;;6.47;;
53650;SDS011;39552;45.776;15.892;2022-10-22T14:21:23;21.88;;;7.10;;
53650;SDS011;39552;45.776;15.892;2022-10-22T14:23:57;9.68;;;5.65;;
